sensor_id;sensor_type;location;lat;lon;timestamp;temperature;humidity
569;DHT22;269;48.884;9.192;2023-05-07T00:01:42;16.10;99.90
569;DHT22;269;48.884;9.192;2023-05-07T00:04:11;16.10;99.90
569;DHT22;269;48.884;9.192;2023-05-07T00:06:39;16.10;99.90
569;DHT22;269;48.884;9.192;2023-05-07T00:09:07;16.10;99.90
569;DHT22;269;48.884;9.192;2023-05-07T00:11:34;16.10;99.90
569;DHT22;269;48.884;9.192;2023-05-07T00:14:01;16.10;99.90
569;DHT22;269;48.884;9.192;2023-05-07T00:16:28;16.10;99.90
569;DHT22;269;48.884;9.192;2023-05-07T00:18:55;16.10;99.90
569;DHT22;269;48.884;9.192;2023-05-07T00:21:22;16.10;99.90
569;DHT22;269;48.884;9.192;2023-05-07T00:23:52;16.20;99.90
569;DHT22;269;48.884;9.192;2023-05-07T00:26:20;16.20;99.90
569;DHT22;269;48.884;9.192;2023-05-07T00:28:47;16.20;99.90
569;DHT22;269;48.884;9.192;2023-05-07T00:31:14;16.20;99.90
569;DHT22;269;48.884;9.192;2023-05-07T00:33:41;16.20;99.90
569;DHT22;269;48.884;9.192;2023-05-07T00:36:08;16.10;99.90
569;DHT22;269;48.884;9.192;2023-05-07T00:38:35;16.10;99.90
569;DHT22;269;48.884;9.192;2023-05-07T00:41:02;16.10;99.90
569;DHT22;269;48.884;9.192;2023-05-07T00:43:31;16.00;99.90
569;DHT22;269;48.884;9.192;2023-05-07T00:45:58;15.90;99.90
569;DHT22;269;48.884;9.192;2023-05-07T00:48:27;15.80;99.90
569;DHT22;269;48.884;9.192;2023-05-07T00:50:54;15.70;99.90
569;DHT22;269;48.884;9.192;2023-05-07T00:53:21;15.70;99.90
569;DHT22;269;48.884;9.192;2023-05-07T00:55:48;15.60;99.90
569;DHT22;269;48.884;9.192;2023-05-07T00:58:16;15.50;99.90
569;DHT22;269;48.884;9.192;2023-05-07T01:00:45;15.50;99.90
569;DHT22;269;48.884;9.192;2023-05-07T01:03:12;15.40;99.90
569;DHT22;269;48.884;9.192;2023-05-07T01:05:40;15.40;99.90
569;DHT22;269;48.884;9.192;2023-05-07T01:08:07;15.30;99.90
569;DHT22;269;48.884;9.192;2023-05-07T01:10:36;15.20;99.90
569;DHT22;269;48.884;9.192;2023-05-07T01:13:03;15.10;99.90
569;DHT22;269;48.884;9.192;2023-05-07T01:15:31;15.10;99.90
569;DHT22;269;48.884;9.192;2023-05-07T01:18:00;15.10;99.90
569;DHT22;269;48.884;9.192;2023-05-07T01:20:28;15.00;99.90
569;DHT22;269;48.884;9.192;2023-05-07T01:22:57;15.00;99.90
569;DHT22;269;48.884;9.192;2023-05-07T01:25:24;15.00;99.90
569;DHT22;269;48.884;9.192;2023-05-07T01:27:51;14.90;99.90
569;DHT22;269;48.884;9.192;2023-05-07T01:30:19;14.90;99.90
569;DHT22;269;48.884;9.192;2023-05-07T01:32:51;14.90;99.90
569;DHT22;269;48.884;9.192;2023-05-07T01:35:20;14.90;99.90
569;DHT22;269;48.884;9.192;2023-05-07T01:37:49;14.90;99.90
569;DHT22;269;48.884;9.192;2023-05-07T01:40:18;14.90;99.90
569;DHT22;269;48.884;9.192;2023-05-07T01:42:46;14.90;99.90
569;DHT22;269;48.884;9.192;2023-05-07T01:45:14;14.90;99.90
569;DHT22;269;48.884;9.192;2023-05-07T01:47:41;14.90;99.90
569;DHT22;269;48.884;9.192;2023-05-07T01:50:10;14.90;99.90
569;DHT22;269;48.884;9.192;2023-05-07T01:52:37;14.90;99.90
569;DHT22;269;48.884;9.192;2023-05-07T01:55:06;14.90;99.90
569;DHT22;269;48.884;9.192;2023-05-07T01:57:35;14.90;99.90
569;DHT22;269;48.884;9.192;2023-05-07T02:00:02;14.90;99.90
569;DHT22;269;48.884;9.192;2023-05-07T02:02:31;14.90;99.90
569;DHT22;269;48.884;9.192;2023-05-07T02:04:59;14.80;99.90
569;DHT22;269;48.884;9.192;2023-05-07T02:07:27;14.80;99.90
569;DHT22;269;48.884;9.192;2023-05-07T02:09:54;14.80;99.90
569;DHT22;269;48.884;9.192;2023-05-07T02:12:21;14.70;99.90
569;DHT22;269;48.884;9.192;2023-05-07T02:14:50;14.90;99.90
569;DHT22;269;48.884;9.192;2023-05-07T02:17:17;14.70;99.90
569;DHT22;269;48.884;9.192;2023-05-07T02:19:44;14.70;99.90
569;DHT22;269;48.884;9.192;2023-05-07T02:22:11;14.70;99.90
569;DHT22;269;48.884;9.192;2023-05-07T02:24:38;14.80;99.90
569;DHT22;269;48.884;9.192;2023-05-07T02:27:05;14.80;99.90
569;DHT22;269;48.884;9.192;2023-05-07T02:29:32;14.70;99.90
569;DHT22;269;48.884;9.192;2023-05-07T02:32:00;14.80;99.90
569;DHT22;269;48.884;9.192;2023-05-07T02:34:28;14.90;99.90
569;DHT22;269;48.884;9.192;2023-05-07T02:36:55;14.90;99.90
569;DHT22;269;48.884;9.192;2023-05-07T02:39:22;14.90;99.90
569;DHT22;269;48.884;9.192;2023-05-07T02:41:49;14.90;99.90
569;DHT22;269;48.884;9.192;2023-05-07T02:44:16;14.90;99.90
569;DHT22;269;48.884;9.192;2023-05-07T02:46:43;14.80;99.90
569;DHT22;269;48.884;9.192;2023-05-07T02:49:11;14.80;99.90
569;DHT22;269;48.884;9.192;2023-05-07T02:51:38;14.90;99.90
569;DHT22;269;48.884;9.192;2023-05-07T02:54:05;14.90;99.90
569;DHT22;269;48.884;9.192;2023-05-07T02:56:33;14.90;99.90
569;DHT22;269;48.884;9.192;2023-05-07T02:58:59;14.90;99.90
569;DHT22;269;48.884;9.192;2023-05-07T03:01:26;14.80;99.90
569;DHT22;269;48.884;9.192;2023-05-07T03:03:54;14.80;99.90
569;DHT22;269;48.884;9.192;2023-05-07T03:06:22;14.70;99.90
569;DHT22;269;48.884;9.192;2023-05-07T03:08:49;14.60;99.90
569;DHT22;269;48.884;9.192;2023-05-07T03:11:16;14.50;99.90
569;DHT22;269;48.884;9.192;2023-05-07T03:13:43;14.50;99.90
569;DHT22;269;48.884;9.192;2023-05-07T03:16:10;14.40;99.90
569;DHT22;269;48.884;9.192;2023-05-07T03:18:38;14.50;99.90
569;DHT22;269;48.884;9.192;2023-05-07T03:21:05;14.30;99.90
569;DHT22;269;48.884;9.192;2023-05-07T03:23:33;14.30;99.90
569;DHT22;269;48.884;9.192;2023-05-07T03:26:01;14.20;99.90
569;DHT22;269;48.884;9.192;2023-05-07T03:28:28;14.20;99.90
569;DHT22;269;48.884;9.192;2023-05-07T03:30:55;14.20;99.90
569;DHT22;269;48.884;9.192;2023-05-07T03:33:22;14.10;99.90
569;DHT22;269;48.884;9.192;2023-05-07T03:35:49;14.10;99.90
569;DHT22;269;48.884;9.192;2023-05-07T03:38:16;14.10;99.90
569;DHT22;269;48.884;9.192;2023-05-07T03:40:45;14.10;99.90
569;DHT22;269;48.884;9.192;2023-05-07T03:43:12;14.10;99.90
569;DHT22;269;48.884;9.192;2023-05-07T03:45:39;14.00;99.90
569;DHT22;269;48.884;9.192;2023-05-07T03:48:06;14.00;99.90
569;DHT22;269;48.884;9.192;2023-05-07T03:50:33;14.00;99.90
569;DHT22;269;48.884;9.192;2023-05-07T03:53:00;13.90;99.90
569;DHT22;269;48.884;9.192;2023-05-07T03:55:27;13.90;99.90
569;DHT22;269;48.884;9.192;2023-05-07T03:57:56;13.80;99.90
569;DHT22;269;48.884;9.192;2023-05-07T04:00:23;13.70;99.90
569;DHT22;269;48.884;9.192;2023-05-07T04:02:50;13.70;99.90
569;DHT22;269;48.884;9.192;2023-05-07T04:05:17;13.70;99.90
569;DHT22;269;48.884;9.192;2023-05-07T04:07:44;13.60;99.90
569;DHT22;269;48.884;9.192;2023-05-07T04:10:11;13.60;99.90
569;DHT22;269;48.884;9.192;2023-05-07T04:12:39;13.60;99.90
569;DHT22;269;48.884;9.192;2023-05-07T04:15:08;13.50;99.90
569;DHT22;269;48.884;9.192;2023-05-07T04:17:36;13.50;99.90
569;DHT22;269;48.884;9.192;2023-05-07T04:20:04;13.50;99.90
569;DHT22;269;48.884;9.192;2023-05-07T04:22:32;13.60;99.90
569;DHT22;269;48.884;9.192;2023-05-07T04:25:00;13.50;99.90
569;DHT22;269;48.884;9.192;2023-05-07T04:27:28;13.60;99.90
569;DHT22;269;48.884;9.192;2023-05-07T04:29:55;13.60;99.90
569;DHT22;269;48.884;9.192;2023-05-07T04:32:24;13.60;99.90
569;DHT22;269;48.884;9.192;2023-05-07T04:34:51;13.60;99.90
569;DHT22;269;48.884;9.192;2023-05-07T04:37:18;13.60;99.90
569;DHT22;269;48.884;9.192;2023-05-07T04:39:46;13.60;99.90
569;DHT22;269;48.884;9.192;2023-05-07T04:42:14;13.60;99.90
569;DHT22;269;48.884;9.192;2023-05-07T04:44:41;13.60;99.90
569;DHT22;269;48.884;9.192;2023-05-07T04:47:08;13.70;99.90
569;DHT22;269;48.884;9.192;2023-05-07T04:49:38;13.70;99.90
569;DHT22;269;48.884;9.192;2023-05-07T04:52:05;13.70;99.90
569;DHT22;269;48.884;9.192;2023-05-07T04:54:32;13.80;99.90
569;DHT22;269;48.884;9.192;2023-05-07T04:56:59;13.80;99.90
569;DHT22;269;48.884;9.192;2023-05-07T04:59:26;13.80;99.90
569;DHT22;269;48.884;9.192;2023-05-07T05:01:53;13.90;99.90
569;DHT22;269;48.884;9.192;2023-05-07T05:04:21;14.20;99.90
569;DHT22;269;48.884;9.192;2023-05-07T05:06:49;14.00;99.90
569;DHT22;269;48.884;9.192;2023-05-07T05:09:16;14.00;99.90
569;DHT22;269;48.884;9.192;2023-05-07T05:11:43;14.10;99.90
569;DHT22;269;48.884;9.192;2023-05-07T05:14:10;14.00;99.90
569;DHT22;269;48.884;9.192;2023-05-07T05:16:37;14.10;99.90
569;DHT22;269;48.884;9.192;2023-05-07T05:19:04;14.20;99.90
569;DHT22;269;48.884;9.192;2023-05-07T05:21:32;14.20;99.90
569;DHT22;269;48.884;9.192;2023-05-07T05:24:00;14.20;99.90
569;DHT22;269;48.884;9.192;2023-05-07T05:26:27;14.20;99.90
569;DHT22;269;48.884;9.192;2023-05-07T05:28:54;14.30;99.90
569;DHT22;269;48.884;9.192;2023-05-07T05:31:21;14.30;99.90
569;DHT22;269;48.884;9.192;2023-05-07T05:33:48;14.30;99.90
569;DHT22;269;48.884;9.192;2023-05-07T05:36:15;14.30;99.90
569;DHT22;269;48.884;9.192;2023-05-07T05:38:42;14.40;99.90
569;DHT22;269;48.884;9.192;2023-05-07T05:41:11;14.50;99.90
569;DHT22;269;48.884;9.192;2023-05-07T05:43:39;14.60;99.90
569;DHT22;269;48.884;9.192;2023-05-07T05:46:06;14.70;99.90
569;DHT22;269;48.884;9.192;2023-05-07T05:48:34;14.90;99.90
569;DHT22;269;48.884;9.192;2023-05-07T05:51:01;15.10;99.90
569;DHT22;269;48.884;9.192;2023-05-07T05:53:28;15.30;99.90
569;DHT22;269;48.884;9.192;2023-05-07T05:55:55;15.60;99.90
569;DHT22;269;48.884;9.192;2023-05-07T05:58:24;15.70;99.90
569;DHT22;269;48.884;9.192;2023-05-07T06:00:51;15.80;99.90
569;DHT22;269;48.884;9.192;2023-05-07T06:03:19;15.70;99.90
569;DHT22;269;48.884;9.192;2023-05-07T06:05:46;15.60;99.90
569;DHT22;269;48.884;9.192;2023-05-07T06:08:13;15.60;99.90
569;DHT22;269;48.884;9.192;2023-05-07T06:10:40;15.50;99.90
569;DHT22;269;48.884;9.192;2023-05-07T06:13:07;15.70;99.90
569;DHT22;269;48.884;9.192;2023-05-07T06:15:36;15.90;99.90
569;DHT22;269;48.884;9.192;2023-05-07T06:18:03;16.00;99.90
569;DHT22;269;48.884;9.192;2023-05-07T06:20:30;16.10;99.90
569;DHT22;269;48.884;9.192;2023-05-07T06:22:57;16.20;99.90
569;DHT22;269;48.884;9.192;2023-05-07T06:25:25;16.10;99.90
569;DHT22;269;48.884;9.192;2023-05-07T06:27:52;16.10;99.90
569;DHT22;269;48.884;9.192;2023-05-07T06:30:19;16.20;99.90
569;DHT22;269;48.884;9.192;2023-05-07T06:32:47;16.30;99.90
569;DHT22;269;48.884;9.192;2023-05-07T06:35:14;16.30;99.90
569;DHT22;269;48.884;9.192;2023-05-07T06:37:42;16.40;99.90
569;DHT22;269;48.884;9.192;2023-05-07T06:40:10;16.50;99.90
569;DHT22;269;48.884;9.192;2023-05-07T06:42:37;16.70;99.90
569;DHT22;269;48.884;9.192;2023-05-07T06:45:05;16.80;99.90
569;DHT22;269;48.884;9.192;2023-05-07T06:47:32;17.00;99.90
569;DHT22;269;48.884;9.192;2023-05-07T06:50:00;17.00;99.90
569;DHT22;269;48.884;9.192;2023-05-07T06:52:27;17.10;99.90
569;DHT22;269;48.884;9.192;2023-05-07T06:54:55;17.20;99.90
569;DHT22;269;48.884;9.192;2023-05-07T06:57:22;17.30;99.90
569;DHT22;269;48.884;9.192;2023-05-07T06:59:48;17.40;99.90
569;DHT22;269;48.884;9.192;2023-05-07T07:02:16;17.50;99.90
569;DHT22;269;48.884;9.192;2023-05-07T07:04:43;17.70;99.90
569;DHT22;269;48.884;9.192;2023-05-07T07:07:12;17.90;99.90
569;DHT22;269;48.884;9.192;2023-05-07T07:09:39;18.00;99.90
569;DHT22;269;48.884;9.192;2023-05-07T07:12:06;18.20;99.90
569;DHT22;269;48.884;9.192;2023-05-07T07:14:33;18.40;99.90
569;DHT22;269;48.884;9.192;2023-05-07T07:17:00;18.60;99.90
569;DHT22;269;48.884;9.192;2023-05-07T07:19:27;19.00;99.90
569;DHT22;269;48.884;9.192;2023-05-07T07:21:54;19.30;99.90
569;DHT22;269;48.884;9.192;2023-05-07T07:24:23;19.60;99.90
569;DHT22;269;48.884;9.192;2023-05-07T07:26:50;19.90;99.90
569;DHT22;269;48.884;9.192;2023-05-07T07:29:17;20.00;99.90
569;DHT22;269;48.884;9.192;2023-05-07T07:31:44;19.80;99.90
569;DHT22;269;48.884;9.192;2023-05-07T07:34:14;19.90;99.90
569;DHT22;269;48.884;9.192;2023-05-07T07:36:41;19.80;99.90
569;DHT22;269;48.884;9.192;2023-05-07T07:39:08;19.60;99.90
569;DHT22;269;48.884;9.192;2023-05-07T07:41:37;19.20;99.90
569;DHT22;269;48.884;9.192;2023-05-07T07:44:04;19.30;99.90
569;DHT22;269;48.884;9.192;2023-05-07T07:46:33;19.20;99.90
569;DHT22;269;48.884;9.192;2023-05-07T07:49:00;19.40;99.90
569;DHT22;269;48.884;9.192;2023-05-07T07:51:27;19.50;99.90
569;DHT22;269;48.884;9.192;2023-05-07T07:53:54;19.60;99.90
569;DHT22;269;48.884;9.192;2023-05-07T07:56:23;19.80;99.90
569;DHT22;269;48.884;9.192;2023-05-07T07:58:51;19.90;99.90
569;DHT22;269;48.884;9.192;2023-05-07T08:01:18;19.90;99.90
569;DHT22;269;48.884;9.192;2023-05-07T08:03:46;19.90;99.90
569;DHT22;269;48.884;9.192;2023-05-07T08:06:13;20.00;99.90
569;DHT22;269;48.884;9.192;2023-05-07T08:08:40;20.00;99.90
569;DHT22;269;48.884;9.192;2023-05-07T08:11:07;20.10;99.90
569;DHT22;269;48.884;9.192;2023-05-07T08:13:34;20.00;99.90
569;DHT22;269;48.884;9.192;2023-05-07T08:16:03;20.00;99.90
569;DHT22;269;48.884;9.192;2023-05-07T08:18:30;20.00;99.90
569;DHT22;269;48.884;9.192;2023-05-07T08:20:57;20.10;99.90
569;DHT22;269;48.884;9.192;2023-05-07T08:23:24;20.30;99.90
569;DHT22;269;48.884;9.192;2023-05-07T08:25:51;20.30;99.90
569;DHT22;269;48.884;9.192;2023-05-07T08:28:18;20.30;99.90
569;DHT22;269;48.884;9.192;2023-05-07T08:30:47;20.20;99.90
569;DHT22;269;48.884;9.192;2023-05-07T08:33:15;20.40;99.90
569;DHT22;269;48.884;9.192;2023-05-07T08:35:42;20.50;99.90
569;DHT22;269;48.884;9.192;2023-05-07T08:38:09;20.60;99.90
569;DHT22;269;48.884;9.192;2023-05-07T08:40:38;20.70;99.90
569;DHT22;269;48.884;9.192;2023-05-07T08:43:06;20.80;99.90
569;DHT22;269;48.884;9.192;2023-05-07T08:45:34;20.90;99.90
569;DHT22;269;48.884;9.192;2023-05-07T08:48:03;21.10;99.90
569;DHT22;269;48.884;9.192;2023-05-07T08:50:36;21.40;99.90
569;DHT22;269;48.884;9.192;2023-05-07T08:53:03;21.80;99.90
569;DHT22;269;48.884;9.192;2023-05-07T08:55:31;22.30;99.90
569;DHT22;269;48.884;9.192;2023-05-07T08:57:59;22.70;99.90
569;DHT22;269;48.884;9.192;2023-05-07T09:00:27;23.10;99.90
569;DHT22;269;48.884;9.192;2023-05-07T09:02:54;23.70;99.90
569;DHT22;269;48.884;9.192;2023-05-07T09:05:21;24.30;99.90
569;DHT22;269;48.884;9.192;2023-05-07T09:07:50;24.70;99.90
569;DHT22;269;48.884;9.192;2023-05-07T09:10:17;24.90;99.90
569;DHT22;269;48.884;9.192;2023-05-07T09:12:46;25.20;99.90
569;DHT22;269;48.884;9.192;2023-05-07T09:15:13;25.20;99.90
569;DHT22;269;48.884;9.192;2023-05-07T09:17:41;25.30;99.90
569;DHT22;269;48.884;9.192;2023-05-07T09:20:10;25.20;99.90
569;DHT22;269;48.884;9.192;2023-05-07T09:22:37;25.30;99.90
569;DHT22;269;48.884;9.192;2023-05-07T09:25:06;25.30;99.90
569;DHT22;269;48.884;9.192;2023-05-07T09:27:35;25.30;99.90
569;DHT22;269;48.884;9.192;2023-05-07T09:30:03;25.30;99.90
569;DHT22;269;48.884;9.192;2023-05-07T09:32:34;25.40;99.90
569;DHT22;269;48.884;9.192;2023-05-07T09:35:02;25.60;99.90
569;DHT22;269;48.884;9.192;2023-05-07T09:37:30;25.90;99.90
569;DHT22;269;48.884;9.192;2023-05-07T09:39:58;25.80;99.90
569;DHT22;269;48.884;9.192;2023-05-07T09:42:27;26.00;99.90
569;DHT22;269;48.884;9.192;2023-05-07T09:44:54;26.10;99.90
569;DHT22;269;48.884;9.192;2023-05-07T09:47:24;26.30;99.90
569;DHT22;269;48.884;9.192;2023-05-07T09:49:54;26.40;99.90
569;DHT22;269;48.884;9.192;2023-05-07T09:52:23;26.70;99.90
569;DHT22;269;48.884;9.192;2023-05-07T09:54:55;27.00;99.90
569;DHT22;269;48.884;9.192;2023-05-07T09:57:26;27.00;99.90
569;DHT22;269;48.884;9.192;2023-05-07T09:59:56;27.10;99.90
569;DHT22;269;48.884;9.192;2023-05-07T10:02:23;27.20;99.90
569;DHT22;269;48.884;9.192;2023-05-07T10:04:52;26.90;99.90
569;DHT22;269;48.884;9.192;2023-05-07T10:07:21;27.10;99.90
569;DHT22;269;48.884;9.192;2023-05-07T10:09:49;27.70;99.90
569;DHT22;269;48.884;9.192;2023-05-07T10:12:17;27.70;99.40
569;DHT22;269;48.884;9.192;2023-05-07T10:14:47;27.80;99.20
569;DHT22;269;48.884;9.192;2023-05-07T10:17:16;28.30;98.50
569;DHT22;269;48.884;9.192;2023-05-07T10:19:44;28.30;98.40
569;DHT22;269;48.884;9.192;2023-05-07T10:22:14;28.70;97.40
569;DHT22;269;48.884;9.192;2023-05-07T10:24:44;29.20;97.00
569;DHT22;269;48.884;9.192;2023-05-07T10:27:14;29.40;96.20
569;DHT22;269;48.884;9.192;2023-05-07T10:29:52;29.60;95.90
569;DHT22;269;48.884;9.192;2023-05-07T10:32:35;30.00;95.50
569;DHT22;269;48.884;9.192;2023-05-07T10:35:06;30.00;93.90
569;DHT22;269;48.884;9.192;2023-05-07T10:37:36;29.70;94.20
569;DHT22;269;48.884;9.192;2023-05-07T10:40:05;29.80;94.10
569;DHT22;269;48.884;9.192;2023-05-07T10:42:32;29.90;94.00
569;DHT22;269;48.884;9.192;2023-05-07T10:45:13;29.90;93.10
569;DHT22;269;48.884;9.192;2023-05-07T10:48:09;30.00;93.50
569;DHT22;269;48.884;9.192;2023-05-07T10:50:37;29.90;93.30
569;DHT22;269;48.884;9.192;2023-05-07T10:53:24;30.00;93.10
569;DHT22;269;48.884;9.192;2023-05-07T10:56:24;30.20;92.90
569;DHT22;269;48.884;9.192;2023-05-07T10:58:52;30.50;92.50
569;DHT22;269;48.884;9.192;2023-05-07T11:04:26;31.20;90.80
569;DHT22;269;48.884;9.192;2023-05-07T11:07:25;31.60;90.40
569;DHT22;269;48.884;9.192;2023-05-07T11:10:03;31.60;89.00
569;DHT22;269;48.884;9.192;2023-05-07T11:12:53;31.30;87.80
569;DHT22;269;48.884;9.192;2023-05-07T11:15:40;30.80;89.30
569;DHT22;269;48.884;9.192;2023-05-07T11:18:09;30.30;90.00
569;DHT22;269;48.884;9.192;2023-05-07T11:20:55;29.80;90.20
569;DHT22;269;48.884;9.192;2023-05-07T11:23:54;29.50;90.60
569;DHT22;269;48.884;9.192;2023-05-07T11:26:22;29.10;91.00
569;DHT22;269;48.884;9.192;2023-05-07T11:28:49;28.80;91.10
569;DHT22;269;48.884;9.192;2023-05-07T11:31:21;28.40;91.80
569;DHT22;269;48.884;9.192;2023-05-07T11:33:48;28.10;92.00
569;DHT22;269;48.884;9.192;2023-05-07T11:36:18;27.70;92.20
569;DHT22;269;48.884;9.192;2023-05-07T11:38:45;27.30;92.60
569;DHT22;269;48.884;9.192;2023-05-07T11:41:12;26.90;91.90
569;DHT22;269;48.884;9.192;2023-05-07T11:43:54;26.50;92.50
569;DHT22;269;48.884;9.192;2023-05-07T11:46:21;26.30;92.70
569;DHT22;269;48.884;9.192;2023-05-07T11:48:48;26.20;93.30
569;DHT22;269;48.884;9.192;2023-05-07T11:51:21;26.10;93.60
569;DHT22;269;48.884;9.192;2023-05-07T11:53:49;26.10;93.50
569;DHT22;269;48.884;9.192;2023-05-07T11:56:17;26.10;93.20
569;DHT22;269;48.884;9.192;2023-05-07T11:58:46;26.10;93.20
569;DHT22;269;48.884;9.192;2023-05-07T12:01:15;26.10;93.40
569;DHT22;269;48.884;9.192;2023-05-07T12:03:44;26.20;93.30
569;DHT22;269;48.884;9.192;2023-05-07T12:06:12;26.10;93.20
569;DHT22;269;48.884;9.192;2023-05-07T12:08:42;26.10;92.80
569;DHT22;269;48.884;9.192;2023-05-07T12:11:13;26.00;92.30
569;DHT22;269;48.884;9.192;2023-05-07T12:13:42;25.90;92.90
569;DHT22;269;48.884;9.192;2023-05-07T12:16:09;25.90;92.80
569;DHT22;269;48.884;9.192;2023-05-07T12:18:37;25.90;93.00
569;DHT22;269;48.884;9.192;2023-05-07T12:21:05;25.70;92.80
569;DHT22;269;48.884;9.192;2023-05-07T12:23:34;25.40;93.30
569;DHT22;269;48.884;9.192;2023-05-07T12:26:04;25.20;93.00
569;DHT22;269;48.884;9.192;2023-05-07T12:28:32;25.00;93.60
569;DHT22;269;48.884;9.192;2023-05-07T12:31:02;24.90;93.50
569;DHT22;269;48.884;9.192;2023-05-07T12:33:30;24.70;94.00
569;DHT22;269;48.884;9.192;2023-05-07T12:35:58;24.60;94.20
569;DHT22;269;48.884;9.192;2023-05-07T12:38:34;24.40;93.40
569;DHT22;269;48.884;9.192;2023-05-07T12:41:04;24.30;94.00
569;DHT22;269;48.884;9.192;2023-05-07T12:43:32;24.20;94.30
569;DHT22;269;48.884;9.192;2023-05-07T12:46:00;24.20;94.80
569;DHT22;269;48.884;9.192;2023-05-07T12:48:28;24.20;95.20
569;DHT22;269;48.884;9.192;2023-05-07T12:50:56;24.10;95.00
569;DHT22;269;48.884;9.192;2023-05-07T12:53:24;24.00;95.40
569;DHT22;269;48.884;9.192;2023-05-07T12:55:53;23.80;95.80
569;DHT22;269;48.884;9.192;2023-05-07T12:58:24;23.60;96.20
569;DHT22;269;48.884;9.192;2023-05-07T13:00:52;23.50;97.20
569;DHT22;269;48.884;9.192;2023-05-07T13:03:24;23.30;98.70
569;DHT22;269;48.884;9.192;2023-05-07T13:05:51;22.90;99.40
569;DHT22;269;48.884;9.192;2023-05-07T13:08:26;22.60;99.90
569;DHT22;269;48.884;9.192;2023-05-07T13:10:53;22.20;99.90
569;DHT22;269;48.884;9.192;2023-05-07T13:13:22;21.90;99.90
569;DHT22;269;48.884;9.192;2023-05-07T13:15:49;21.50;99.90
569;DHT22;269;48.884;9.192;2023-05-07T13:18:16;20.90;99.90
569;DHT22;269;48.884;9.192;2023-05-07T13:20:43;20.40;99.90
569;DHT22;269;48.884;9.192;2023-05-07T13:23:10;20.00;99.90
569;DHT22;269;48.884;9.192;2023-05-07T13:25:37;19.80;99.90
569;DHT22;269;48.884;9.192;2023-05-07T13:28:05;19.60;99.90
569;DHT22;269;48.884;9.192;2023-05-07T13:30:33;19.50;99.90
569;DHT22;269;48.884;9.192;2023-05-07T13:33:00;19.50;99.90
569;DHT22;269;48.884;9.192;2023-05-07T13:35:27;19.40;99.90
569;DHT22;269;48.884;9.192;2023-05-07T13:37:54;19.40;99.90
569;DHT22;269;48.884;9.192;2023-05-07T13:40:21;19.40;99.90
569;DHT22;269;48.884;9.192;2023-05-07T13:42:49;18.90;99.90
569;DHT22;269;48.884;9.192;2023-05-07T13:45:17;18.60;99.90
569;DHT22;269;48.884;9.192;2023-05-07T13:47:45;18.30;99.90
569;DHT22;269;48.884;9.192;2023-05-07T13:50:13;18.10;99.90
569;DHT22;269;48.884;9.192;2023-05-07T13:52:41;17.90;99.90
569;DHT22;269;48.884;9.192;2023-05-07T13:55:11;17.80;99.90
569;DHT22;269;48.884;9.192;2023-05-07T13:57:38;17.70;99.90
569;DHT22;269;48.884;9.192;2023-05-07T14:00:06;17.70;99.90
569;DHT22;269;48.884;9.192;2023-05-07T14:02:34;17.80;99.90
569;DHT22;269;48.884;9.192;2023-05-07T14:05:03;17.80;99.90
569;DHT22;269;48.884;9.192;2023-05-07T14:07:30;17.90;99.90
569;DHT22;269;48.884;9.192;2023-05-07T14:09:57;18.00;99.90
569;DHT22;269;48.884;9.192;2023-05-07T14:12:24;18.10;99.90
569;DHT22;269;48.884;9.192;2023-05-07T14:14:51;18.10;99.90
569;DHT22;269;48.884;9.192;2023-05-07T14:17:18;18.20;99.90
569;DHT22;269;48.884;9.192;2023-05-07T14:19:46;18.20;99.90
569;DHT22;269;48.884;9.192;2023-05-07T14:22:14;18.20;99.90
569;DHT22;269;48.884;9.192;2023-05-07T14:24:41;18.10;99.90
569;DHT22;269;48.884;9.192;2023-05-07T14:27:08;17.80;99.90
569;DHT22;269;48.884;9.192;2023-05-07T14:29:35;17.30;99.90
569;DHT22;269;48.884;9.192;2023-05-07T14:32:03;16.90;99.90
569;DHT22;269;48.884;9.192;2023-05-07T14:34:31;16.60;99.90
569;DHT22;269;48.884;9.192;2023-05-07T14:36:59;16.40;99.90
569;DHT22;269;48.884;9.192;2023-05-07T14:39:27;16.20;99.90
569;DHT22;269;48.884;9.192;2023-05-07T14:41:55;16.10;99.90
569;DHT22;269;48.884;9.192;2023-05-07T14:44:23;16.30;99.90
569;DHT22;269;48.884;9.192;2023-05-07T14:46:50;16.00;99.90
569;DHT22;269;48.884;9.192;2023-05-07T14:49:18;16.00;99.90
569;DHT22;269;48.884;9.192;2023-05-07T14:51:45;16.10;99.90
569;DHT22;269;48.884;9.192;2023-05-07T14:54:12;16.10;99.90
569;DHT22;269;48.884;9.192;2023-05-07T14:56:41;16.40;99.90
569;DHT22;269;48.884;9.192;2023-05-07T14:59:09;16.30;99.90
569;DHT22;269;48.884;9.192;2023-05-07T15:01:36;16.40;99.90
569;DHT22;269;48.884;9.192;2023-05-07T15:04:06;16.50;99.90
569;DHT22;269;48.884;9.192;2023-05-07T15:06:33;16.60;99.90
569;DHT22;269;48.884;9.192;2023-05-07T15:09:00;16.70;99.90
569;DHT22;269;48.884;9.192;2023-05-07T15:11:27;16.80;99.90
569;DHT22;269;48.884;9.192;2023-05-07T15:13:55;16.90;99.90
569;DHT22;269;48.884;9.192;2023-05-07T15:16:22;16.90;99.90
569;DHT22;269;48.884;9.192;2023-05-07T15:18:49;17.10;99.90
569;DHT22;269;48.884;9.192;2023-05-07T15:21:16;17.30;99.90
569;DHT22;269;48.884;9.192;2023-05-07T15:23:43;17.40;99.90
569;DHT22;269;48.884;9.192;2023-05-07T15:26:11;17.50;99.90
569;DHT22;269;48.884;9.192;2023-05-07T15:28:38;17.60;99.90
569;DHT22;269;48.884;9.192;2023-05-07T15:31:07;17.70;99.90
569;DHT22;269;48.884;9.192;2023-05-07T15:33:35;17.90;99.90
569;DHT22;269;48.884;9.192;2023-05-07T15:36:02;17.90;99.90
569;DHT22;269;48.884;9.192;2023-05-07T15:38:29;18.00;99.90
569;DHT22;269;48.884;9.192;2023-05-07T15:40:56;18.10;99.90
569;DHT22;269;48.884;9.192;2023-05-07T15:43:23;18.10;99.90
569;DHT22;269;48.884;9.192;2023-05-07T15:45:51;18.20;99.90
569;DHT22;269;48.884;9.192;2023-05-07T15:48:20;18.20;99.90
569;DHT22;269;48.884;9.192;2023-05-07T15:50:47;18.20;99.90
569;DHT22;269;48.884;9.192;2023-05-07T15:53:14;18.20;99.90
569;DHT22;269;48.884;9.192;2023-05-07T15:55:42;18.20;99.90
569;DHT22;269;48.884;9.192;2023-05-07T15:58:09;18.20;99.90
569;DHT22;269;48.884;9.192;2023-05-07T16:00:37;18.20;99.90
569;DHT22;269;48.884;9.192;2023-05-07T16:03:06;18.30;99.90
569;DHT22;269;48.884;9.192;2023-05-07T16:05:35;18.30;99.90
569;DHT22;269;48.884;9.192;2023-05-07T16:08:03;18.30;99.90
569;DHT22;269;48.884;9.192;2023-05-07T16:10:30;18.40;99.90
569;DHT22;269;48.884;9.192;2023-05-07T16:12:57;18.40;99.90
569;DHT22;269;48.884;9.192;2023-05-07T16:15:24;18.40;99.90
569;DHT22;269;48.884;9.192;2023-05-07T16:17:51;18.40;99.90
569;DHT22;269;48.884;9.192;2023-05-07T16:20:23;18.50;99.90
569;DHT22;269;48.884;9.192;2023-05-07T16:22:53;18.50;99.90
569;DHT22;269;48.884;9.192;2023-05-07T16:25:20;18.40;99.90
569;DHT22;269;48.884;9.192;2023-05-07T16:27:47;18.30;99.90
569;DHT22;269;48.884;9.192;2023-05-07T16:30:14;18.20;99.90
569;DHT22;269;48.884;9.192;2023-05-07T16:32:41;18.20;99.90
569;DHT22;269;48.884;9.192;2023-05-07T16:35:09;18.10;99.90
569;DHT22;269;48.884;9.192;2023-05-07T16:37:39;18.10;99.90
569;DHT22;269;48.884;9.192;2023-05-07T16:40:09;18.10;99.90
569;DHT22;269;48.884;9.192;2023-05-07T16:42:37;18.10;99.90
569;DHT22;269;48.884;9.192;2023-05-07T16:45:05;18.10;99.90